Myrtle Beach, South Carolina
Current Conditions -  °F | °C
As of 6:49 AM on Thursday 27 Nov 2014 (Local Time) from KMYR Reporting Station
Few Clouds Few Clouds  
Wind Chill:   Ceiling: Unl
Heat Index:   Visibility: 10mi
Dew Point:   Wind: 10mph
Humidity: 66%   Direction: 240°WSW
Pressure: 30.05"   Gusts: NA
Location:  33.69°N, 78.88°W
Report Text: KMYR 271149Z 24009KT 10SM FEW085 08/02 A3005
Loading
Personal Weather Stations






























Interactive Weather Map New forecast layout! Learn more

10-Day Weather Forecast

Advertisements
Track Severe Weather on mobile